sensor_id;sensor_type;location;lat;lon;timestamp;P1;durP1;ratioP1;P2;durP2;ratioP2
26965;SDS011;14522;52.068;4.414;2023-09-08T00:00:27;17.58;;;13.05;;
26965;SDS011;14522;52.068;4.414;2023-09-08T00:02:53;5.63;;;4.55;;
26965;SDS011;14522;52.068;4.414;2023-09-08T00:05:19;13.10;;;11.15;;
26965;SDS011;14522;52.068;4.414;2023-09-08T00:07:46;15.35;;;12.40;;
26965;SDS011;14522;52.068;4.414;2023-09-08T00:10:12;5.22;;;4.43;;
26965;SDS011;14522;52.068;4.414;2023-09-08T00:12:39;10.05;;;7.70;;
26965;SDS011;14522;52.068;4.414;2023-09-08T00:15:06;8.85;;;7.88;;
26965;SDS011;14522;52.068;4.414;2023-09-08T00:17:32;5.63;;;4.57;;
26965;SDS011;14522;52.068;4.414;2023-09-08T00:19:59;6.90;;;5.20;;
26965;SDS011;14522;52.068;4.414;2023-09-08T00:22:25;5.47;;;4.63;;
26965;SDS011;14522;52.068;4.414;2023-09-08T00:24:52;5.82;;;5.22;;
26965;SDS011;14522;52.068;4.414;2023-09-08T00:27:18;7.63;;;6.05;;
26965;SDS011;14522;52.068;4.414;2023-09-08T00:29:44;6.43;;;5.75;;
26965;SDS011;14522;52.068;4.414;2023-09-08T00:32:11;15.75;;;11.15;;
26965;SDS011;14522;52.068;4.414;2023-09-08T00:34:39;15.10;;;11.10;;
26965;SDS011;14522;52.068;4.414;2023-09-08T00:37:05;13.93;;;11.25;;
26965;SDS011;14522;52.068;4.414;2023-09-08T00:39:37;17.23;;;12.55;;
26965;SDS011;14522;52.068;4.414;2023-09-08T00:42:03;15.50;;;11.65;;
26965;SDS011;14522;52.068;4.414;2023-09-08T00:44:30;12.50;;;9.15;;
26965;SDS011;14522;52.068;4.414;2023-09-08T00:46:56;20.55;;;12.77;;
26965;SDS011;14522;52.068;4.414;2023-09-08T00:49:23;15.55;;;12.00;;
26965;SDS011;14522;52.068;4.414;2023-09-08T00:51:49;9.75;;;7.75;;
26965;SDS011;14522;52.068;4.414;2023-09-08T00:54:16;8.73;;;7.43;;
26965;SDS011;14522;52.068;4.414;2023-09-08T00:56:42;11.35;;;8.23;;
26965;SDS011;14522;52.068;4.414;2023-09-08T00:59:09;8.48;;;6.07;;
26965;SDS011;14522;52.068;4.414;2023-09-08T01:01:35;18.08;;;11.35;;
26965;SDS011;14522;52.068;4.414;2023-09-08T01:04:02;7.45;;;5.72;;
26965;SDS011;14522;52.068;4.414;2023-09-08T01:06:29;15.23;;;12.40;;
26965;SDS011;14522;52.068;4.414;2023-09-08T01:08:56;17.33;;;12.82;;
26965;SDS011;14522;52.068;4.414;2023-09-08T01:11:23;9.75;;;8.68;;
26965;SDS011;14522;52.068;4.414;2023-09-08T01:13:49;14.70;;;11.88;;
26965;SDS011;14522;52.068;4.414;2023-09-08T01:16:15;9.57;;;8.25;;
26965;SDS011;14522;52.068;4.414;2023-09-08T01:18:43;13.45;;;9.00;;
26965;SDS011;14522;52.068;4.414;2023-09-08T01:23:57;5.40;;;3.47;;
26965;SDS011;14522;52.068;4.414;2023-09-08T01:26:29;7.90;;;5.97;;
26965;SDS011;14522;52.068;4.414;2023-09-08T01:28:57;5.30;;;4.32;;
26965;SDS011;14522;52.068;4.414;2023-09-08T01:31:25;13.43;;;10.77;;
26965;SDS011;14522;52.068;4.414;2023-09-08T01:33:51;12.20;;;10.75;;
26965;SDS011;14522;52.068;4.414;2023-09-08T01:36:18;9.05;;;7.35;;
26965;SDS011;14522;52.068;4.414;2023-09-08T01:38:44;10.65;;;8.52;;
26965;SDS011;14522;52.068;4.414;2023-09-08T01:41:11;14.55;;;12.35;;
26965;SDS011;14522;52.068;4.414;2023-09-08T01:43:37;8.90;;;7.55;;
26965;SDS011;14522;52.068;4.414;2023-09-08T01:46:03;6.43;;;5.22;;
26965;SDS011;14522;52.068;4.414;2023-09-08T01:48:30;14.27;;;8.80;;
26965;SDS011;14522;52.068;4.414;2023-09-08T01:50:57;13.18;;;9.93;;
26965;SDS011;14522;52.068;4.414;2023-09-08T01:53:23;10.85;;;9.45;;
26965;SDS011;14522;52.068;4.414;2023-09-08T01:55:50;12.38;;;9.55;;
26965;SDS011;14522;52.068;4.414;2023-09-08T01:58:16;15.93;;;12.02;;
26965;SDS011;14522;52.068;4.414;2023-09-08T02:00:43;10.15;;;7.15;;
26965;SDS011;14522;52.068;4.414;2023-09-08T02:03:09;15.10;;;12.00;;
26965;SDS011;14522;52.068;4.414;2023-09-08T02:05:36;13.63;;;8.48;;
26965;SDS011;14522;52.068;4.414;2023-09-08T02:08:05;6.78;;;5.20;;
26965;SDS011;14522;52.068;4.414;2023-09-08T02:10:31;7.10;;;5.57;;
26965;SDS011;14522;52.068;4.414;2023-09-08T02:12:58;15.15;;;11.43;;
26965;SDS011;14522;52.068;4.414;2023-09-08T02:15:24;12.77;;;11.02;;
26965;SDS011;14522;52.068;4.414;2023-09-08T02:17:54;8.25;;;7.07;;
26965;SDS011;14522;52.068;4.414;2023-09-08T02:20:21;13.05;;;10.00;;
26965;SDS011;14522;52.068;4.414;2023-09-08T02:22:49;8.82;;;6.78;;
26965;SDS011;14522;52.068;4.414;2023-09-08T02:25:16;13.07;;;10.18;;
26965;SDS011;14522;52.068;4.414;2023-09-08T02:27:43;11.13;;;8.77;;
26965;SDS011;14522;52.068;4.414;2023-09-08T02:30:10;10.27;;;8.52;;
26965;SDS011;14522;52.068;4.414;2023-09-08T02:32:36;15.27;;;11.95;;
26965;SDS011;14522;52.068;4.414;2023-09-08T02:35:03;14.98;;;8.60;;
26965;SDS011;14522;52.068;4.414;2023-09-08T02:37:29;18.63;;;11.43;;
26965;SDS011;14522;52.068;4.414;2023-09-08T02:39:56;13.73;;;10.65;;
26965;SDS011;14522;52.068;4.414;2023-09-08T02:42:22;16.48;;;12.00;;
26965;SDS011;14522;52.068;4.414;2023-09-08T02:44:48;8.10;;;6.90;;
26965;SDS011;14522;52.068;4.414;2023-09-08T02:47:15;13.75;;;11.27;;
26965;SDS011;14522;52.068;4.414;2023-09-08T02:49:41;7.93;;;6.68;;
26965;SDS011;14522;52.068;4.414;2023-09-08T02:52:09;9.30;;;8.02;;
26965;SDS011;14522;52.068;4.414;2023-09-08T02:54:36;11.15;;;9.23;;
26965;SDS011;14522;52.068;4.414;2023-09-08T02:57:02;11.57;;;9.70;;
26965;SDS011;14522;52.068;4.414;2023-09-08T02:59:29;11.32;;;7.10;;
26965;SDS011;14522;52.068;4.414;2023-09-08T03:01:55;13.18;;;10.20;;
26965;SDS011;14522;52.068;4.414;2023-09-08T03:04:22;14.68;;;9.30;;
26965;SDS011;14522;52.068;4.414;2023-09-08T03:06:48;12.52;;;8.57;;
26965;SDS011;14522;52.068;4.414;2023-09-08T03:09:14;7.68;;;5.95;;
26965;SDS011;14522;52.068;4.414;2023-09-08T03:11:41;7.57;;;6.35;;
26965;SDS011;14522;52.068;4.414;2023-09-08T03:14:07;5.63;;;4.07;;
26965;SDS011;14522;52.068;4.414;2023-09-08T03:16:34;9.90;;;7.85;;
26965;SDS011;14522;52.068;4.414;2023-09-08T03:19:00;8.75;;;7.35;;
26965;SDS011;14522;52.068;4.414;2023-09-08T03:21:27;11.85;;;9.30;;
26965;SDS011;14522;52.068;4.414;2023-09-08T03:23:53;6.95;;;5.25;;
26965;SDS011;14522;52.068;4.414;2023-09-08T03:26:20;5.18;;;4.45;;
26965;SDS011;14522;52.068;4.414;2023-09-08T03:28:46;13.57;;;9.35;;
26965;SDS011;14522;52.068;4.414;2023-09-08T03:31:12;6.88;;;5.50;;
26965;SDS011;14522;52.068;4.414;2023-09-08T03:33:39;14.07;;;10.18;;
26965;SDS011;14522;52.068;4.414;2023-09-08T03:36:06;14.30;;;10.25;;
26965;SDS011;14522;52.068;4.414;2023-09-08T03:38:32;8.40;;;5.63;;
26965;SDS011;14522;52.068;4.414;2023-09-08T03:40:59;6.00;;;4.95;;
26965;SDS011;14522;52.068;4.414;2023-09-08T03:43:26;12.02;;;6.88;;
26965;SDS011;14522;52.068;4.414;2023-09-08T03:45:52;9.80;;;7.78;;
26965;SDS011;14522;52.068;4.414;2023-09-08T03:48:19;14.45;;;9.55;;
26965;SDS011;14522;52.068;4.414;2023-09-08T03:50:45;8.43;;;6.35;;
26965;SDS011;14522;52.068;4.414;2023-09-08T03:53:12;15.57;;;11.77;;
26965;SDS011;14522;52.068;4.414;2023-09-08T03:55:39;13.65;;;10.50;;
26965;SDS011;14522;52.068;4.414;2023-09-08T03:58:06;13.20;;;7.50;;
26965;SDS011;14522;52.068;4.414;2023-09-08T04:00:32;8.85;;;7.53;;
26965;SDS011;14522;52.068;4.414;2023-09-08T04:02:59;11.20;;;9.35;;
26965;SDS011;14522;52.068;4.414;2023-09-08T04:05:25;11.57;;;9.00;;
26965;SDS011;14522;52.068;4.414;2023-09-08T04:07:52;11.80;;;8.80;;
26965;SDS011;14522;52.068;4.414;2023-09-08T04:10:19;11.93;;;9.18;;
26965;SDS011;14522;52.068;4.414;2023-09-08T04:12:45;9.35;;;7.63;;
26965;SDS011;14522;52.068;4.414;2023-09-08T04:15:12;3.97;;;3.13;;
26965;SDS011;14522;52.068;4.414;2023-09-08T04:17:38;10.75;;;6.35;;
26965;SDS011;14522;52.068;4.414;2023-09-08T04:20:05;11.35;;;9.10;;
26965;SDS011;14522;52.068;4.414;2023-09-08T04:22:33;6.57;;;5.18;;
26965;SDS011;14522;52.068;4.414;2023-09-08T04:24:59;9.82;;;5.50;;
26965;SDS011;14522;52.068;4.414;2023-09-08T04:27:26;8.68;;;5.53;;
26965;SDS011;14522;52.068;4.414;2023-09-08T04:29:52;13.82;;;6.70;;
26965;SDS011;14522;52.068;4.414;2023-09-08T04:32:19;12.10;;;9.48;;
26965;SDS011;14522;52.068;4.414;2023-09-08T04:34:45;9.63;;;7.80;;
26965;SDS011;14522;52.068;4.414;2023-09-08T04:37:11;8.40;;;5.90;;
26965;SDS011;14522;52.068;4.414;2023-09-08T04:39:38;9.18;;;6.80;;
26965;SDS011;14522;52.068;4.414;2023-09-08T04:42:05;3.53;;;2.42;;
26965;SDS011;14522;52.068;4.414;2023-09-08T04:44:31;5.57;;;4.07;;
26965;SDS011;14522;52.068;4.414;2023-09-08T04:46:57;5.63;;;4.55;;
26965;SDS011;14522;52.068;4.414;2023-09-08T04:49:24;9.02;;;5.45;;
26965;SDS011;14522;52.068;4.414;2023-09-08T04:51:50;10.90;;;7.25;;
26965;SDS011;14522;52.068;4.414;2023-09-08T04:54:17;7.82;;;6.50;;
26965;SDS011;14522;52.068;4.414;2023-09-08T04:56:43;7.90;;;6.05;;
26965;SDS011;14522;52.068;4.414;2023-09-08T04:59:10;7.40;;;5.72;;
26965;SDS011;14522;52.068;4.414;2023-09-08T05:01:36;6.88;;;5.47;;
26965;SDS011;14522;52.068;4.414;2023-09-08T05:04:03;7.00;;;4.90;;
26965;SDS011;14522;52.068;4.414;2023-09-08T05:06:30;7.80;;;5.85;;
26965;SDS011;14522;52.068;4.414;2023-09-08T05:08:57;4.15;;;3.58;;
26965;SDS011;14522;52.068;4.414;2023-09-08T05:11:25;8.00;;;5.03;;
26965;SDS011;14522;52.068;4.414;2023-09-08T05:13:52;7.80;;;5.95;;
26965;SDS011;14522;52.068;4.414;2023-09-08T05:16:20;6.15;;;4.45;;
26965;SDS011;14522;52.068;4.414;2023-09-08T05:19:03;10.40;;;7.20;;
26965;SDS011;14522;52.068;4.414;2023-09-08T05:21:30;8.82;;;6.68;;
26965;SDS011;14522;52.068;4.414;2023-09-08T05:23:57;10.85;;;8.23;;
26965;SDS011;14522;52.068;4.414;2023-09-08T05:26:23;8.77;;;4.97;;
26965;SDS011;14522;52.068;4.414;2023-09-08T05:28:49;11.32;;;6.80;;
26965;SDS011;14522;52.068;4.414;2023-09-08T05:31:16;14.23;;;9.05;;
26965;SDS011;14522;52.068;4.414;2023-09-08T05:33:42;7.65;;;5.68;;
26965;SDS011;14522;52.068;4.414;2023-09-08T05:36:09;9.73;;;7.32;;
26965;SDS011;14522;52.068;4.414;2023-09-08T05:38:37;11.43;;;8.23;;
26965;SDS011;14522;52.068;4.414;2023-09-08T05:41:04;12.43;;;9.68;;
26965;SDS011;14522;52.068;4.414;2023-09-08T05:43:30;13.90;;;9.60;;
26965;SDS011;14522;52.068;4.414;2023-09-08T05:45:57;9.15;;;7.80;;
26965;SDS011;14522;52.068;4.414;2023-09-08T05:48:23;8.68;;;7.60;;
26965;SDS011;14522;52.068;4.414;2023-09-08T05:50:50;9.20;;;6.22;;
26965;SDS011;14522;52.068;4.414;2023-09-08T05:53:16;7.55;;;5.85;;
26965;SDS011;14522;52.068;4.414;2023-09-08T05:55:42;7.72;;;6.57;;
26965;SDS011;14522;52.068;4.414;2023-09-08T05:58:09;4.55;;;3.38;;
26965;SDS011;14522;52.068;4.414;2023-09-08T06:00:37;14.77;;;8.32;;
26965;SDS011;14522;52.068;4.414;2023-09-08T06:03:03;11.30;;;7.25;;
26965;SDS011;14522;52.068;4.414;2023-09-08T06:05:30;11.60;;;7.03;;
26965;SDS011;14522;52.068;4.414;2023-09-08T06:07:56;10.48;;;6.43;;
26965;SDS011;14522;52.068;4.414;2023-09-08T06:10:32;6.57;;;5.20;;
26965;SDS011;14522;52.068;4.414;2023-09-08T06:13:00;7.30;;;5.68;;
26965;SDS011;14522;52.068;4.414;2023-09-08T06:15:27;14.40;;;8.10;;
26965;SDS011;14522;52.068;4.414;2023-09-08T06:17:54;11.20;;;7.93;;
26965;SDS011;14522;52.068;4.414;2023-09-08T06:20:21;16.08;;;9.30;;
26965;SDS011;14522;52.068;4.414;2023-09-08T06:22:48;8.20;;;5.95;;
26965;SDS011;14522;52.068;4.414;2023-09-08T06:25:14;9.63;;;6.07;;
26965;SDS011;14522;52.068;4.414;2023-09-08T06:27:42;14.57;;;9.77;;
26965;SDS011;14522;52.068;4.414;2023-09-08T06:30:09;10.40;;;7.32;;
26965;SDS011;14522;52.068;4.414;2023-09-08T06:32:35;14.18;;;8.60;;
26965;SDS011;14522;52.068;4.414;2023-09-08T06:35:02;27.85;;;9.60;;
26965;SDS011;14522;52.068;4.414;2023-09-08T06:37:34;13.15;;;9.43;;
26965;SDS011;14522;52.068;4.414;2023-09-08T06:40:00;15.73;;;9.45;;
26965;SDS011;14522;52.068;4.414;2023-09-08T06:42:27;6.05;;;4.55;;
26965;SDS011;14522;52.068;4.414;2023-09-08T06:44:53;3.80;;;2.67;;
26965;SDS011;14522;52.068;4.414;2023-09-08T06:47:20;11.80;;;8.20;;
26965;SDS011;14522;52.068;4.414;2023-09-08T06:49:46;8.88;;;6.07;;
26965;SDS011;14522;52.068;4.414;2023-09-08T06:52:13;7.82;;;4.82;;
26965;SDS011;14522;52.068;4.414;2023-09-08T06:54:40;8.55;;;6.35;;
26965;SDS011;14522;52.068;4.414;2023-09-08T06:57:06;13.02;;;10.13;;
26965;SDS011;14522;52.068;4.414;2023-09-08T06:59:33;14.98;;;10.50;;
26965;SDS011;14522;52.068;4.414;2023-09-08T07:01:59;7.20;;;5.47;;
26965;SDS011;14522;52.068;4.414;2023-09-08T07:04:26;9.45;;;7.70;;
26965;SDS011;14522;52.068;4.414;2023-09-08T07:06:53;11.55;;;9.18;;
26965;SDS011;14522;52.068;4.414;2023-09-08T07:09:21;23.25;;;12.02;;
26965;SDS011;14522;52.068;4.414;2023-09-08T07:11:47;13.07;;;6.40;;
26965;SDS011;14522;52.068;4.414;2023-09-08T07:14:14;9.18;;;6.88;;
26965;SDS011;14522;52.068;4.414;2023-09-08T07:16:40;16.15;;;11.85;;
26965;SDS011;14522;52.068;4.414;2023-09-08T07:19:06;20.00;;;13.20;;
26965;SDS011;14522;52.068;4.414;2023-09-08T07:21:33;4.72;;;3.40;;
26965;SDS011;14522;52.068;4.414;2023-09-08T07:23:59;6.30;;;5.10;;
26965;SDS011;14522;52.068;4.414;2023-09-08T07:26:26;6.25;;;4.72;;
26965;SDS011;14522;52.068;4.414;2023-09-08T07:28:53;14.73;;;9.88;;
26965;SDS011;14522;52.068;4.414;2023-09-08T07:31:19;14.25;;;9.73;;
26965;SDS011;14522;52.068;4.414;2023-09-08T07:33:46;11.93;;;8.52;;
26965;SDS011;14522;52.068;4.414;2023-09-08T07:36:13;24.52;;;15.75;;
26965;SDS011;14522;52.068;4.414;2023-09-08T07:38:40;13.57;;;10.82;;
26965;SDS011;14522;52.068;4.414;2023-09-08T07:41:06;14.27;;;11.00;;
26965;SDS011;14522;52.068;4.414;2023-09-08T07:43:33;8.77;;;6.95;;
26965;SDS011;14522;52.068;4.414;2023-09-08T07:45:59;15.93;;;11.10;;
26965;SDS011;14522;52.068;4.414;2023-09-08T07:48:26;20.63;;;15.10;;
26965;SDS011;14522;52.068;4.414;2023-09-08T07:50:52;15.73;;;11.73;;
26965;SDS011;14522;52.068;4.414;2023-09-08T07:53:19;25.40;;;13.27;;
26965;SDS011;14522;52.068;4.414;2023-09-08T07:55:45;18.45;;;13.02;;
26965;SDS011;14522;52.068;4.414;2023-09-08T07:58:12;19.67;;;14.23;;
26965;SDS011;14522;52.068;4.414;2023-09-08T08:00:38;22.63;;;16.20;;
26965;SDS011;14522;52.068;4.414;2023-09-08T08:03:04;22.23;;;16.85;;
26965;SDS011;14522;52.068;4.414;2023-09-08T08:05:32;15.05;;;9.10;;
26965;SDS011;14522;52.068;4.414;2023-09-08T08:07:59;20.95;;;15.23;;
26965;SDS011;14522;52.068;4.414;2023-09-08T08:10:25;15.82;;;7.35;;
26965;SDS011;14522;52.068;4.414;2023-09-08T08:12:52;19.30;;;14.80;;
26965;SDS011;14522;52.068;4.414;2023-09-08T08:15:22;9.15;;;7.50;;
26965;SDS011;14522;52.068;4.414;2023-09-08T08:17:48;22.23;;;13.07;;
26965;SDS011;14522;52.068;4.414;2023-09-08T08:20:15;12.50;;;7.55;;
26965;SDS011;14522;52.068;4.414;2023-09-08T08:22:45;21.52;;;15.48;;
26965;SDS011;14522;52.068;4.414;2023-09-08T08:25:12;27.67;;;16.48;;
26965;SDS011;14522;52.068;4.414;2023-09-08T08:27:39;25.67;;;16.95;;
26965;SDS011;14522;52.068;4.414;2023-09-08T08:30:06;22.00;;;16.30;;
26965;SDS011;14522;52.068;4.414;2023-09-08T08:32:33;23.65;;;15.57;;
26965;SDS011;14522;52.068;4.414;2023-09-08T08:34:59;16.42;;;10.73;;
26965;SDS011;14522;52.068;4.414;2023-09-08T08:37:26;17.95;;;10.07;;
26965;SDS011;14522;52.068;4.414;2023-09-08T08:39:52;20.75;;;15.70;;
26965;SDS011;14522;52.068;4.414;2023-09-08T08:42:19;24.23;;;16.13;;
26965;SDS011;14522;52.068;4.414;2023-09-08T08:44:48;24.50;;;14.48;;
26965;SDS011;14522;52.068;4.414;2023-09-08T08:47:16;14.93;;;11.35;;
26965;SDS011;14522;52.068;4.414;2023-09-08T08:49:46;7.55;;;6.45;;
26965;SDS011;14522;52.068;4.414;2023-09-08T08:52:14;17.23;;;13.07;;
26965;SDS011;14522;52.068;4.414;2023-09-08T08:54:41;33.60;;;16.50;;
26965;SDS011;14522;52.068;4.414;2023-09-08T08:57:09;30.90;;;16.27;;
26965;SDS011;14522;52.068;4.414;2023-09-08T08:59:35;13.98;;;11.05;;
26965;SDS011;14522;52.068;4.414;2023-09-08T09:02:03;22.33;;;14.75;;
26965;SDS011;14522;52.068;4.414;2023-09-08T09:04:30;21.73;;;16.33;;
26965;SDS011;14522;52.068;4.414;2023-09-08T09:06:57;18.42;;;12.93;;
26965;SDS011;14522;52.068;4.414;2023-09-08T09:09:24;21.10;;;14.85;;
26965;SDS011;14522;52.068;4.414;2023-09-08T09:11:51;29.55;;;14.82;;
26965;SDS011;14522;52.068;4.414;2023-09-08T09:14:18;22.42;;;15.10;;
26965;SDS011;14522;52.068;4.414;2023-09-08T09:16:45;23.40;;;14.70;;
26965;SDS011;14522;52.068;4.414;2023-09-08T09:19:21;23.77;;;14.23;;
26965;SDS011;14522;52.068;4.414;2023-09-08T09:21:58;22.17;;;12.40;;
26965;SDS011;14522;52.068;4.414;2023-09-08T09:24:29;24.88;;;12.95;;
26965;SDS011;14522;52.068;4.414;2023-09-08T09:26:56;24.17;;;12.93;;
26965;SDS011;14522;52.068;4.414;2023-09-08T09:29:22;19.38;;;12.75;;
26965;SDS011;14522;52.068;4.414;2023-09-08T09:31:56;19.92;;;13.70;;
26965;SDS011;14522;52.068;4.414;2023-09-08T09:34:23;20.42;;;12.68;;
26965;SDS011;14522;52.068;4.414;2023-09-08T09:36:50;14.13;;;9.98;;
26965;SDS011;14522;52.068;4.414;2023-09-08T09:39:17;19.35;;;12.93;;
26965;SDS011;14522;52.068;4.414;2023-09-08T09:41:45;16.05;;;12.07;;
26965;SDS011;14522;52.068;4.414;2023-09-08T09:44:11;17.50;;;10.45;;
26965;SDS011;14522;52.068;4.414;2023-09-08T09:46:38;16.17;;;11.00;;
26965;SDS011;14522;52.068;4.414;2023-09-08T09:49:05;17.73;;;12.20;;
26965;SDS011;14522;52.068;4.414;2023-09-08T09:51:32;20.60;;;11.70;;
26965;SDS011;14522;52.068;4.414;2023-09-08T09:54:05;24.30;;;11.25;;
26965;SDS011;14522;52.068;4.414;2023-09-08T09:56:32;16.00;;;11.57;;
26965;SDS011;14522;52.068;4.414;2023-09-08T09:58:59;14.60;;;9.73;;
26965;SDS011;14522;52.068;4.414;2023-09-08T10:01:28;15.88;;;10.18;;
26965;SDS011;14522;52.068;4.414;2023-09-08T10:03:55;33.25;;;20.83;;
26965;SDS011;14522;52.068;4.414;2023-09-08T10:06:22;26.65;;;19.50;;
26965;SDS011;14522;52.068;4.414;2023-09-08T10:08:49;14.50;;;8.35;;
26965;SDS011;14522;52.068;4.414;2023-09-08T10:11:18;15.30;;;9.27;;
26965;SDS011;14522;52.068;4.414;2023-09-08T10:13:47;11.57;;;9.02;;
26965;SDS011;14522;52.068;4.414;2023-09-08T10:16:16;12.65;;;8.27;;
26965;SDS011;14522;52.068;4.414;2023-09-08T10:18:44;13.18;;;8.88;;
26965;SDS011;14522;52.068;4.414;2023-09-08T10:21:12;22.83;;;9.75;;
26965;SDS011;14522;52.068;4.414;2023-09-08T10:23:43;19.75;;;9.50;;
26965;SDS011;14522;52.068;4.414;2023-09-08T10:26:10;21.40;;;8.90;;
26965;SDS011;14522;52.068;4.414;2023-09-08T10:28:37;18.75;;;9.77;;
26965;SDS011;14522;52.068;4.414;2023-09-08T10:31:04;22.45;;;10.85;;
26965;SDS011;14522;52.068;4.414;2023-09-08T10:33:31;16.15;;;9.75;;
26965;SDS011;14522;52.068;4.414;2023-09-08T10:35:59;16.30;;;9.15;;
26965;SDS011;14522;52.068;4.414;2023-09-08T10:38:29;16.27;;;8.38;;
26965;SDS011;14522;52.068;4.414;2023-09-08T10:43:47;10.80;;;7.45;;
26965;SDS011;14522;52.068;4.414;2023-09-08T10:46:21;10.40;;;6.97;;
26965;SDS011;14522;52.068;4.414;2023-09-08T10:48:48;12.77;;;8.45;;
26965;SDS011;14522;52.068;4.414;2023-09-08T10:51:14;11.25;;;8.18;;
26965;SDS011;14522;52.068;4.414;2023-09-08T10:53:42;12.35;;;7.00;;
26965;SDS011;14522;52.068;4.414;2023-09-08T10:56:08;8.63;;;6.45;;
26965;SDS011;14522;52.068;4.414;2023-09-08T10:58:43;7.53;;;5.47;;
26965;SDS011;14522;52.068;4.414;2023-09-08T11:01:19;8.35;;;5.60;;
26965;SDS011;14522;52.068;4.414;2023-09-08T11:03:46;12.52;;;8.43;;
26965;SDS011;14522;52.068;4.414;2023-09-08T11:06:16;12.23;;;7.68;;
26965;SDS011;14522;52.068;4.414;2023-09-08T11:08:44;11.73;;;7.05;;
26965;SDS011;14522;52.068;4.414;2023-09-08T11:11:15;12.35;;;6.85;;
26965;SDS011;14522;52.068;4.414;2023-09-08T11:13:41;13.90;;;6.50;;
26965;SDS011;14522;52.068;4.414;2023-09-08T11:16:08;9.40;;;5.47;;
26965;SDS011;14522;52.068;4.414;2023-09-08T11:18:34;12.25;;;7.10;;
26965;SDS011;14522;52.068;4.414;2023-09-08T11:21:03;9.35;;;5.70;;
26965;SDS011;14522;52.068;4.414;2023-09-08T11:23:29;8.88;;;6.07;;
26965;SDS011;14522;52.068;4.414;2023-09-08T11:25:57;9.65;;;6.68;;
26965;SDS011;14522;52.068;4.414;2023-09-08T11:28:23;9.02;;;6.30;;
26965;SDS011;14522;52.068;4.414;2023-09-08T11:30:50;13.65;;;6.00;;
26965;SDS011;14522;52.068;4.414;2023-09-08T11:33:18;5.35;;;4.47;;
26965;SDS011;14522;52.068;4.414;2023-09-08T11:35:45;7.15;;;4.72;;
26965;SDS011;14522;52.068;4.414;2023-09-08T11:38:12;10.25;;;4.40;;
26965;SDS011;14522;52.068;4.414;2023-09-08T11:40:38;14.02;;;4.47;;
26965;SDS011;14522;52.068;4.414;2023-09-08T11:43:06;10.00;;;4.80;;
26965;SDS011;14522;52.068;4.414;2023-09-08T11:45:36;7.00;;;4.90;;
26965;SDS011;14522;52.068;4.414;2023-09-08T11:48:03;6.80;;;4.55;;
26965;SDS011;14522;52.068;4.414;2023-09-08T11:50:30;9.25;;;3.70;;
26965;SDS011;14522;52.068;4.414;2023-09-08T11:52:59;7.22;;;3.95;;
26965;SDS011;14522;52.068;4.414;2023-09-08T11:55:26;9.20;;;3.95;;
26965;SDS011;14522;52.068;4.414;2023-09-08T11:57:53;7.47;;;4.13;;
26965;SDS011;14522;52.068;4.414;2023-09-08T12:00:27;7.50;;;4.05;;
26965;SDS011;14522;52.068;4.414;2023-09-08T12:02:54;7.35;;;4.10;;
26965;SDS011;14522;52.068;4.414;2023-09-08T12:05:24;6.35;;;4.57;;
26965;SDS011;14522;52.068;4.414;2023-09-08T12:07:51;2.88;;;2.38;;
26965;SDS011;14522;52.068;4.414;2023-09-08T12:10:18;6.70;;;3.90;;
26965;SDS011;14522;52.068;4.414;2023-09-08T12:12:49;5.10;;;3.83;;
26965;SDS011;14522;52.068;4.414;2023-09-08T12:18:02;6.32;;;4.20;;
26965;SDS011;14522;52.068;4.414;2023-09-08T12:20:29;6.35;;;4.82;;
26965;SDS011;14522;52.068;4.414;2023-09-08T12:22:57;5.50;;;4.20;;
26965;SDS011;14522;52.068;4.414;2023-09-08T12:25:23;6.97;;;4.50;;
26965;SDS011;14522;52.068;4.414;2023-09-08T12:27:50;4.43;;;3.50;;
26965;SDS011;14522;52.068;4.414;2023-09-08T12:30:18;9.05;;;4.43;;
26965;SDS011;14522;52.068;4.414;2023-09-08T12:32:48;8.80;;;4.30;;
26965;SDS011;14522;52.068;4.414;2023-09-08T12:35:21;7.82;;;4.43;;
26965;SDS011;14522;52.068;4.414;2023-09-08T12:37:52;5.28;;;3.60;;
26965;SDS011;14522;52.068;4.414;2023-09-08T12:40:19;4.55;;;3.95;;
26965;SDS011;14522;52.068;4.414;2023-09-08T12:42:45;10.18;;;4.72;;
26965;SDS011;14522;52.068;4.414;2023-09-08T12:45:22;5.95;;;4.43;;
26965;SDS011;14522;52.068;4.414;2023-09-08T12:47:49;8.82;;;4.82;;
26965;SDS011;14522;52.068;4.414;2023-09-08T12:50:16;7.97;;;4.35;;
26965;SDS011;14522;52.068;4.414;2023-09-08T12:52:42;8.15;;;4.57;;
26965;SDS011;14522;52.068;4.414;2023-09-08T12:55:08;8.52;;;5.03;;
26965;SDS011;14522;52.068;4.414;2023-09-08T12:57:35;9.30;;;4.35;;
26965;SDS011;14522;52.068;4.414;2023-09-08T13:00:03;6.57;;;4.28;;
26965;SDS011;14522;52.068;4.414;2023-09-08T13:02:29;5.93;;;4.28;;
26965;SDS011;14522;52.068;4.414;2023-09-08T13:04:56;10.38;;;3.88;;
26965;SDS011;14522;52.068;4.414;2023-09-08T13:07:22;7.38;;;4.50;;
26965;SDS011;14522;52.068;4.414;2023-09-08T13:09:49;5.85;;;4.72;;
26965;SDS011;14522;52.068;4.414;2023-09-08T13:12:16;6.18;;;4.00;;
26965;SDS011;14522;52.068;4.414;2023-09-08T13:14:43;7.05;;;4.05;;
26965;SDS011;14522;52.068;4.414;2023-09-08T13:17:10;8.30;;;4.70;;
26965;SDS011;14522;52.068;4.414;2023-09-08T13:19:36;5.88;;;4.30;;
26965;SDS011;14522;52.068;4.414;2023-09-08T13:22:04;9.20;;;4.47;;
26965;SDS011;14522;52.068;4.414;2023-09-08T13:24:31;8.80;;;4.20;;
26965;SDS011;14522;52.068;4.414;2023-09-08T13:26:57;7.40;;;4.35;;
26965;SDS011;14522;52.068;4.414;2023-09-08T13:29:24;7.10;;;3.45;;
26965;SDS011;14522;52.068;4.414;2023-09-08T13:31:50;6.65;;;4.25;;
26965;SDS011;14522;52.068;4.414;2023-09-08T13:34:17;5.38;;;3.58;;
26965;SDS011;14522;52.068;4.414;2023-09-08T13:36:44;4.05;;;3.60;;
26965;SDS011;14522;52.068;4.414;2023-09-08T13:39:10;4.70;;;3.58;;
26965;SDS011;14522;52.068;4.414;2023-09-08T13:41:53;6.47;;;4.10;;
26965;SDS011;14522;52.068;4.414;2023-09-08T13:44:20;9.18;;;5.53;;
26965;SDS011;14522;52.068;4.414;2023-09-08T13:46:49;12.68;;;5.82;;
26965;SDS011;14522;52.068;4.414;2023-09-08T13:49:16;9.82;;;5.40;;
26965;SDS011;14522;52.068;4.414;2023-09-08T13:51:45;12.45;;;6.43;;
26965;SDS011;14522;52.068;4.414;2023-09-08T13:54:14;9.35;;;5.18;;
26965;SDS011;14522;52.068;4.414;2023-09-08T13:56:43;8.70;;;4.80;;
26965;SDS011;14522;52.068;4.414;2023-09-08T13:59:10;8.10;;;4.00;;
26965;SDS011;14522;52.068;4.414;2023-09-08T14:01:38;12.98;;;4.95;;
26965;SDS011;14522;52.068;4.414;2023-09-08T14:04:09;8.05;;;4.13;;
26965;SDS011;14522;52.068;4.414;2023-09-08T14:06:36;5.45;;;3.88;;
26965;SDS011;14522;52.068;4.414;2023-09-08T14:09:15;6.45;;;3.97;;
26965;SDS011;14522;52.068;4.414;2023-09-08T14:11:44;5.93;;;4.20;;
26965;SDS011;14522;52.068;4.414;2023-09-08T14:14:14;7.43;;;4.20;;
26965;SDS011;14522;52.068;4.414;2023-09-08T14:16:40;8.18;;;4.45;;
26965;SDS011;14522;52.068;4.414;2023-09-08T14:19:07;8.68;;;5.35;;
26965;SDS011;14522;52.068;4.414;2023-09-08T14:21:33;12.32;;;5.32;;
26965;SDS011;14522;52.068;4.414;2023-09-08T14:24:00;8.65;;;4.70;;
26965;SDS011;14522;52.068;4.414;2023-09-08T14:26:26;6.88;;;4.65;;
26965;SDS011;14522;52.068;4.414;2023-09-08T14:28:52;9.73;;;5.38;;
26965;SDS011;14522;52.068;4.414;2023-09-08T14:31:19;11.57;;;5.05;;
26965;SDS011;14522;52.068;4.414;2023-09-08T14:33:46;8.80;;;4.35;;
26965;SDS011;14522;52.068;4.414;2023-09-08T14:36:16;6.93;;;4.38;;
26965;SDS011;14522;52.068;4.414;2023-09-08T14:38:43;11.43;;;5.05;;
26965;SDS011;14522;52.068;4.414;2023-09-08T14:41:09;10.05;;;4.72;;
26965;SDS011;14522;52.068;4.414;2023-09-08T14:43:35;6.63;;;4.07;;
26965;SDS011;14522;52.068;4.414;2023-09-08T14:46:02;6.35;;;5.00;;